Time;durP1;ratioP1;P1;durP2;ratioP2;P2;SDS_P1;SDS_P2;PMS_P1;PMS_P2;Temp;Humidity;BMP_temperature;BMP_pressure;BME280_temperature;BME280_humidity;BME280_pressure;Samples;Min_cycle;Max_cycle;Signal;HPM_P1;HPM_P2
2022/04/17 00:00:14;;;;;;;0.50;0.50;;;;;;;5.71;49.67;98056.19;29394;197;64004;-58
2022/04/17 00:00:48;;;;;;;0.60;0.60;;;;;;;5.72;49.90;98060.53;29395;198;63008;-58
2022/04/17 00:01:19;;;;;;;0.60;0.60;;;;;;;5.69;50.22;98053.72;29395;224;63004;-58
2022/04/17 00:01:50;;;;;;;0.57;0.57;;;;;;;5.68;51.15;98064.72;29395;233;63009;-59
2022/04/17 00:02:22;;;;;;;0.50;0.50;;;;;;;5.63;50.64;98061.91;29395;235;63005;-57
2022/04/17 00:02:54;;;;;;;0.50;0.50;;;;;;;5.63;50.69;98064.59;29394;218;64009;-56
2022/04/17 00:03:25;;;;;;;0.60;0.60;;;;;;;5.63;50.17;98064.59;29395;245;63005;-58
2022/04/17 00:03:57;;;;;;;0.60;0.60;;;;;;;5.67;49.66;98063.09;29395;236;63009;-57
2022/04/17 00:04:28;;;;;;;0.62;0.62;;;;;;;5.68;49.40;98064.72;29395;218;63005;-57
2022/04/17 00:04:59;;;;;;;0.52;0.52;;;;;;;5.69;49.17;98059.13;29395;222;63009;-58
2022/04/17 00:05:31;;;;;;;0.50;0.50;;;;;;;5.68;49.80;98065.56;29395;202;63004;-58
2022/04/17 00:06:02;;;;;;;0.55;0.55;;;;;;;5.66;49.97;98062.28;29394;215;64009;-58
2022/04/17 00:06:33;;;;;;;0.50;0.50;;;;;;;5.64;49.91;98063.56;29395;220;63004;-58
2022/04/17 00:07:07;;;;;;;0.50;0.50;;;;;;;5.64;50.14;98068.94;29395;317;63009;-64
2022/04/17 00:07:39;;;;;;;0.60;0.60;;;;;;;5.62;50.26;98057.56;29395;202;63009;-58
2022/04/17 00:08:10;;;;;;;0.60;0.60;;;;;;;5.61;50.00;98069.41;29395;213;63008;-63
2022/04/17 00:08:41;;;;;;;0.60;0.60;;;;;;;5.58;50.68;98068.00;29395;203;63005;-57
2022/04/17 00:09:14;;;;;;;0.70;0.70;;;;;;;5.54;50.86;98068.72;29395;216;63014;-58
2022/04/17 00:09:45;;;;;;;0.50;0.50;;;;;;;5.52;50.48;98065.44;29394;211;64005;-57
2022/04/17 00:10:16;;;;;;;0.60;0.60;;;;;;;5.49;51.31;98071.28;29395;242;63009;-59
2022/04/17 00:10:48;;;;;;;0.60;0.60;;;;;;;5.46;51.25;98071.72;29395;267;63005;-63
2022/04/17 00:11:20;;;;;;;0.60;0.60;;;;;;;5.42;50.57;98065.16;29395;211;63009;-57
2022/04/17 00:11:51;;;;;;;0.50;0.50;;;;;;;5.38;50.94;98064.81;29395;218;63005;-58
2022/04/17 00:12:23;;;;;;;0.60;0.60;;;;;;;5.38;50.81;98064.81;29395;229;63009;-60
2022/04/17 00:12:54;;;;;;;0.60;0.60;;;;;;;5.36;50.86;98059.66;29395;242;63004;-58
2022/04/17 00:13:25;;;;;;;0.60;0.60;;;;;;;5.35;50.78;98066.09;29395;218;63009;-58
2022/04/17 00:13:59;;;;;;;0.50;0.50;;;;;;;5.34;51.05;98069.81;29395;232;63004;-56
2022/04/17 00:14:30;;;;;;;0.50;0.50;;;;;;;5.32;50.87;98061.16;29395;241;63015;-57
2022/04/17 00:15:03;;;;;;;0.50;0.50;;;;;;;5.32;51.10;98066.53;29394;217;64004;-58
2022/04/17 00:15:34;;;;;;;0.60;0.60;;;;;;;5.31;51.35;98070.28;29395;265;63008;-58
2022/04/17 00:16:05;;;;;;;0.52;0.52;;;;;;;5.29;52.64;98075.06;29395;218;63010;-57
2022/04/17 00:16:40;;;;;;;0.60;0.60;;;;;;;5.27;51.89;98069.09;29395;196;63009;-57
2022/04/17 00:17:12;;;;;;;0.60;0.60;;;;;;;5.27;52.41;98073.66;29395;197;63005;-55
2022/04/17 00:17:44;;;;;;;0.55;0.55;;;;;;;5.27;52.69;98081.72;29395;207;63009;-57
2022/04/17 00:18:16;;;;;;;0.50;0.50;;;;;;;5.22;53.47;98077.03;29395;214;63007;-57
2022/04/17 00:18:48;;;;;;;0.60;0.60;;;;;;;5.17;52.98;98079.63;29395;217;63009;-57
2022/04/17 00:19:19;;;;;;;0.60;0.60;;;;;;;5.16;53.01;98080.69;29395;208;63005;-57
2022/04/17 00:19:50;;;;;;;2.45;2.35;;;;;;;5.17;52.69;98084.19;29395;287;63009;-58
2022/04/17 00:20:21;;;;;;;0.50;0.50;;;;;;;5.17;52.79;98076.12;29394;212;64004;-58
2022/04/17 00:20:52;;;;;;;0.60;0.60;;;;;;;5.15;52.77;98079.03;29395;212;63009;-59
2022/04/17 00:21:23;;;;;;;0.60;0.60;;;;;;;5.13;52.76;98078.44;29395;222;63004;-58
2022/04/17 00:21:54;;;;;;;0.50;0.50;;;;;;;5.13;53.01;98078.44;29395;231;63009;-57
2022/04/17 00:22:26;;;;;;;0.60;0.60;;;;;;;5.12;52.73;98081.34;29395;203;63004;-58
2022/04/17 00:22:57;;;;;;;0.60;0.60;;;;;;;5.11;52.74;98083.22;29395;222;63008;-58
2022/04/17 00:23:28;;;;;;;0.60;0.60;;;;;;;5.10;53.32;98080.75;29395;237;63005;-58
2022/04/17 00:24:00;;;;;;;0.60;0.60;;;;;;;5.06;55.13;98088.47;29395;211;63009;-59
2022/04/17 00:24:31;;;;;;;0.50;0.50;;;;;;;5.01;54.34;98083.78;29394;215;64005;-59
2022/04/17 00:25:03;;;;;;;0.50;0.50;;;;;;;4.98;53.86;98086.09;29395;197;63009;-57
2022/04/17 00:25:34;;;;;;;0.50;0.50;;;;;;;4.95;53.63;98081.97;29395;198;63005;-58
2022/04/17 00:26:05;;;;;;;0.60;0.60;;;;;;;4.96;53.08;98082.81;29394;232;64009;-62
2022/04/17 00:26:37;;;;;;;0.60;0.60;;;;;;;4.96;53.42;98082.81;29395;196;63005;-57
2022/04/17 00:27:08;;;;;;;0.60;0.60;;;;;;;4.95;53.31;98079.28;29395;215;63009;-57
2022/04/17 00:27:40;;;;;;;0.50;0.50;;;;;;;4.96;53.87;98085.50;29395;226;63004;-57
2022/04/17 00:28:11;;;;;;;0.50;0.50;;;;;;;4.91;53.66;98080.78;29395;202;63009;-57
2022/04/17 00:28:42;;;;;;;0.57;0.57;;;;;;;4.91;53.50;98086.16;29395;210;63004;-58
2022/04/17 00:29:13;;;;;;;0.50;0.50;;;;;;;4.92;53.27;98082.44;29395;259;63009;-57
2022/04/17 00:29:44;;;;;;;0.50;0.50;;;;;;;4.91;53.78;98075.41;29395;259;63004;-59
2022/04/17 00:30:16;;;;;;;0.50;0.50;;;;;;;4.93;53.24;98083.25;29395;227;63008;-57
2022/04/17 00:30:48;;;;;;;0.60;0.60;;;;;;;4.92;53.69;98081.63;29395;290;63004;-59
2022/04/17 00:31:19;;;;;;;0.60;0.60;;;;;;;4.92;53.87;98076.25;29371;203;64009;-57
2022/04/17 00:31:51;;;;;;;0.60;0.60;;;;;;;4.91;54.68;98079.97;29394;369;64005;-58
2022/04/17 00:32:22;;;;;;;0.60;0.60;;;;;;;4.89;54.63;98088.25;29395;208;63009;-58
2022/04/17 00:32:53;;;;;;;0.60;0.60;;;;;;;4.88;54.23;98078.56;29395;252;63005;-57
2022/04/17 00:33:24;;;;;;;0.50;0.50;;;;;;;4.87;54.74;98073.41;29395;292;63009;-58
2022/04/17 00:33:58;;;;;;;0.60;0.60;;;;;;;4.87;54.56;98070.72;29395;235;63005;-57
2022/04/17 00:34:30;;;;;;;0.50;0.50;;;;;;;4.84;54.54;98069.34;29395;200;63009;-57
2022/04/17 00:35:04;;;;;;;0.60;0.60;;;;;;;4.83;54.78;98067.69;29373;221;63005;-57
2022/04/17 00:35:35;;;;;;;0.60;0.60;;;;;;;4.83;55.09;98072.25;29394;329;64009;-58
2022/04/17 00:36:06;;;;;;;0.70;0.70;;;;;;;4.81;55.28;98075.16;29373;278;63004;-58
2022/04/17 00:36:37;;;;;;;0.50;0.50;;;;;;;4.80;54.70;98070.00;29373;233;63009;-57
2022/04/17 00:37:09;;;;;;;0.60;0.60;;;;;;;4.80;55.12;98072.69;29394;225;64004;-57
2022/04/17 00:37:40;;;;;;;0.60;0.60;;;;;;;4.77;55.76;98073.16;29395;221;63008;-57
2022/04/17 00:38:12;;;;;;;0.50;0.50;;;;;;;4.75;55.39;98064.47;29395;224;63004;-57
2022/04/17 00:38:43;;;;;;;0.60;0.60;;;;;;;4.74;56.23;98070.91;29395;264;63009;-57
2022/04/17 00:39:14;;;;;;;0.50;0.50;;;;;;;4.68;57.68;98081.53;29373;243;63005;-57
2022/04/17 00:39:45;;;;;;;0.60;0.60;;;;;;;4.66;55.99;98066.66;29373;305;63009;-57
2022/04/17 00:40:16;;;;;;;0.50;0.50;;;;;;;4.64;56.00;98071.44;29373;233;63008;-57
2022/04/17 00:40:48;;;;;;;0.60;0.60;;;;;;;4.64;55.89;98061.50;29373;243;63009;-57
2022/04/17 00:41:20;;;;;;;0.80;0.80;;;;;;;4.66;55.72;98059.41;29373;297;63000;-57
2022/04/17 00:41:53;;;;;;;0.57;0.57;;;;;;;4.65;56.15;98065.84;29395;265;63009;-58
2022/04/17 00:42:25;;;;;;;0.60;0.60;;;;;;;4.63;55.52;98062.56;29371;214;64005;-57
2022/04/17 00:42:59;;;;;;;0.60;0.60;;;;;;;4.59;55.94;98061.34;29373;245;63009;-57
2022/04/17 00:43:33;;;;;;;0.60;0.60;;;;;;;4.57;55.39;98059.94;29395;223;63004;-58
2022/04/17 00:44:14;;;;;;;1.00;1.00;;;;;;;4.55;55.45;98062.84;29373;206;63015;-58
2022/04/17 00:44:45;;;;;;;;;;;;;;;4.50;56.95;98068.09;29974;983;28000;-58
2022/04/17 00:45:17;;;;;;;0.60;0.60;;;;;;;4.47;55.80;98071.25;29422;289;63004;-57
2022/04/17 00:45:48;;;;;;;1.23;1.23;;;;;;;4.48;55.72;98064.00;29395;260;63008;-57
2022/04/17 00:46:19;;;;;;;0.50;0.50;;;;;;;4.47;56.04;98057.81;29373;218;63005;-57
2022/04/17 00:46:53;;;;;;;0.60;0.60;;;;;;;4.47;55.79;98057.81;29371;209;64009;-57
2022/04/17 00:47:24;;;;;;;0.60;0.60;;;;;;;4.48;56.42;98066.69;29373;383;63005;-57
2022/04/17 00:47:55;;;;;;;0.60;0.60;;;;;;;4.47;56.09;98065.06;29373;208;63009;-57
2022/04/17 00:48:27;;;;;;;0.50;0.50;;;;;;;4.45;56.13;98059.06;29373;218;63008;-58
2022/04/17 00:48:58;;;;;;;0.60;0.60;;;;;;;4.45;56.43;98062.59;29395;199;63009;-57
2022/04/17 00:49:29;;;;;;;0.60;0.60;;;;;;;4.44;56.09;98055.56;29395;202;63005;-57
2022/04/17 00:50:01;;;;;;;0.50;0.50;;;;;;;4.44;55.71;98063.63;29395;204;63015;-57
2022/04/17 00:50:33;;;;;;;0.60;0.60;;;;;;;4.44;55.67;98058.25;29371;206;64004;-57
2022/04/17 00:51:05;;;;;;;0.60;0.60;;;;;;;4.43;56.57;98061.16;29373;299;63009;-57
2022/04/17 00:51:37;;;;;;;0.60;0.60;;;;;;;4.41;57.04;98066.75;29373;198;63004;-57
2022/04/17 00:52:09;;;;;;;0.77;0.77;;;;;;;4.35;56.62;98062.28;29395;378;63009;-57
2022/04/17 00:52:42;;;;;;;0.80;0.80;;;;;;;4.29;56.50;98061.31;29373;225;63004;-57
2022/04/17 00:53:13;;;;;;;0.60;0.60;;;;;;;4.28;56.67;98066.91;29395;250;63008;-58
2022/04/17 00:53:45;;;;;;;0.68;0.68;;;;;;;4.27;56.81;98057.19;29373;336;63005;-57
2022/04/17 00:54:19;;;;;;;0.60;0.60;;;;;;;4.27;56.14;98063.41;29373;363;63009;-58
2022/04/17 00:54:52;;;;;;;0.60;0.60;;;;;;;4.29;56.14;98065.84;29373;200;63005;-57
2022/04/17 00:55:23;;;;;;;0.80;0.80;;;;;;;4.29;56.15;98055.13;29373;210;63009;-57
2022/04/17 00:55:55;;;;;;;0.50;0.50;;;;;;;4.29;55.68;98055.13;29371;279;64005;-57
2022/04/17 00:56:27;;;;;;;0.50;0.50;;;;;;;4.29;55.52;98055.13;29373;340;63009;-57
2022/04/17 00:56:59;;;;;;;0.60;0.60;;;;;;;4.30;55.63;98056.75;29373;287;63005;-57
2022/04/17 00:57:31;;;;;;;0.60;0.60;;;;;;;4.32;55.79;98052.81;29373;202;63009;-57
2022/04/17 00:58:02;;;;;;;0.60;0.60;;;;;;;4.33;56.16;98053.62;29373;295;63004;-57
2022/04/17 00:58:37;;;;;;;0.52;0.52;;;;;;;4.33;56.27;98057.13;29373;237;63017;-56
2022/04/17 00:59:09;;;;;;;0.60;0.60;;;;;;;4.31;56.59;98053.84;29373;234;63004;-57
2022/04/17 00:59:42;;;;;;;0.90;0.90;;;;;;;4.30;57.37;98056.75;29373;220;63009;-57
2022/04/17 01:00:13;;;;;;;0.60;0.60;;;;;;;4.29;57.26;98049.75;29373;312;63004;-57
2022/04/17 01:00:46;;;;;;;0.60;0.60;;;;;;;4.29;56.91;98055.13;29371;367;64008;-58
2022/04/17 01:01:17;;;;;;;0.60;0.60;;;;;;;4.28;56.74;98053.47;29371;209;64005;-59
2022/04/17 01:01:49;;;;;;;0.60;0.60;;;;;;;4.29;56.04;98055.13;29373;241;63009;-57
2022/04/17 01:02:20;;;;;;;0.60;0.60;;;;;;;4.30;55.61;98046.00;29372;330;64005;-64
2022/04/17 01:02:51;;;;;;;0.60;0.60;;;;;;;4.29;56.72;98050.56;29373;314;63005;-63
2022/04/17 01:03:22;;;;;;;0.60;0.60;;;;;;;4.30;56.01;98049.53;29373;251;63005;-63
2022/04/17 01:03:53;;;;;;;0.60;0.60;;;;;;;4.32;56.51;98054.66;29373;314;63009;-57
2022/04/17 01:04:24;;;;;;;0.60;0.60;;;;;;;4.32;56.59;98054.66;29373;295;63004;-58
2022/04/17 01:04:55;;;;;;;0.60;0.60;;;;;;;4.32;56.50;98050.13;29373;237;63011;-64
2022/04/17 01:05:27;;;;;;;0.60;0.60;;;;;;;4.32;57.17;98054.66;29373;225;63004;-65
2022/04/17 01:06:01;;;;;;;0.60;0.60;;;;;;;4.32;57.53;98051.97;29371;268;64009;-57
2022/04/17 01:06:33;;;;;;;0.60;0.60;;;;;;;4.31;57.08;98048.47;29373;221;63004;-63
2022/04/17 01:07:05;;;;;;;0.60;0.60;;;;;;;4.30;57.55;98046.00;29373;221;63008;-56
2022/04/17 01:07:38;;;;;;;0.52;0.52;;;;;;;4.30;57.04;98049.53;29373;265;63004;-64
2022/04/17 01:08:10;;;;;;;0.60;0.60;;;;;;;4.30;56.92;98046.81;29373;242;63008;-64
2022/04/17 01:08:42;;;;;;;0.50;0.50;;;;;;;4.30;57.14;98046.00;29371;251;64005;-65
2022/04/17 01:09:14;;;;;;;0.60;0.60;;;;;;;4.30;57.84;98048.69;29373;217;63009;-66
2022/04/17 01:09:50;;;;;;;0.60;0.60;;;;;;;4.28;58.06;98048.91;29373;259;63005;-58
2022/04/17 01:10:22;;;;;;;0.70;0.70;;;;;;;4.27;58.64;98054.50;29395;259;63009;-63
2022/04/17 01:10:57;;;;;;;0.60;0.60;;;;;;;4.26;57.91;98047.50;29395;212;63005;-59
2022/04/17 01:11:29;;;;;;;0.60;0.60;;;;;;;4.26;57.96;98044.81;29394;285;64009;-66
2022/04/17 01:12:01;;;;;;;0.60;0.60;;;;;;;4.26;57.77;98044.81;29395;231;63004;-65
2022/04/17 01:12:37;;;;;;;0.60;0.60;;;;;;;4.24;57.03;98046.91;29373;236;63009;-58
2022/04/17 01:13:08;;;;;;;0.60;0.60;;;;;;;4.24;57.33;98045.03;29394;210;64004;-58
2022/04/17 01:13:42;;;;;;;0.60;0.60;;;;;;;4.26;56.91;98047.50;29395;232;63009;-58
2022/04/17 01:14:13;;;;;;;0.50;0.50;;;;;;;4.26;56.93;98042.13;29395;263;63004;-64
2022/04/17 01:14:45;;;;;;;0.60;0.60;;;;;;;4.26;56.94;98044.81;29394;218;64008;-57
2022/04/17 01:15:19;;;;;;;0.60;0.60;;;;;;;4.21;56.92;98037.41;29395;240;63004;-63
2022/04/17 01:15:54;;;;;;;0.60;0.60;;;;;;;4.25;56.88;98040.47;29395;297;63015;-64
2022/04/17 01:16:29;;;;;;;0.60;0.60;;;;;;;4.22;57.17;98046.31;29373;234;63005;-63
2022/04/17 01:17:04;;;;;;;0.62;0.62;;;;;;;4.24;56.80;98041.53;29395;241;63018;-63
2022/04/17 01:17:35;;;;;;;0.60;0.60;;;;;;;4.25;57.08;98046.69;29395;236;63005;-64
2022/04/17 01:18:07;;;;;;;0.68;0.68;;;;;;;4.26;56.64;98042.94;29373;203;63009;-63
2022/04/17 01:19:13;;;;;;;0.60;0.60;;;;;;;4.27;56.80;98046.44;29395;209;63005;-61
2022/04/17 01:19:45;;;;;;;0.60;0.60;;;;;;;4.26;56.93;98034.06;29394;339;64009;-65
2022/04/17 01:20:17;;;;;;;0.60;0.60;;;;;;;4.25;56.60;98037.78;29395;258;63004;-64
2022/04/17 01:20:49;;;;;;;0.60;0.60;;;;;;;4.23;56.53;98040.72;29373;231;63009;-63
2022/04/17 01:21:20;;;;;;;0.55;0.55;;;;;;;4.23;57.35;98046.09;29394;304;64004;-63
2022/04/17 01:21:51;;;;;;;0.60;0.60;;;;;;;4.22;56.77;98038.25;29373;266;63009;-58
2022/04/17 01:22:23;;;;;;;0.60;0.60;;;;;;;4.21;57.03;98041.97;29373;228;63004;-56
2022/04/17 01:26:56;;;;;;;0.60;0.60;;;;;;;4.18;57.75;98043.25;29373;247;63009;-62
2022/04/17 01:27:04;;;;;;;0.60;0.60;;;;;;;4.14;56.54;98035.88;29371;244;64003;-62
2022/04/17 01:27:36;;;;;;;0.57;0.57;;;;;;;4.13;57.44;98036.94;29371;202;64009;-63
2022/04/17 01:28:07;;;;;;;0.60;0.60;;;;;;;4.15;57.38;98040.22;29373;276;63004;-64
2022/04/17 01:28:40;;;;;;;0.60;0.60;;;;;;;4.17;58.10;98040.78;29373;301;63009;-63
2022/04/17 01:29:11;;;;;;;1.33;1.33;;;;;;;4.16;58.19;98042.63;29371;204;64004;-63
2022/04/17 01:29:42;;;;;;;0.60;0.60;;;;;;;4.10;58.75;98040.88;29373;292;63008;-62
2022/04/17 01:30:17;;;;;;;0.50;0.50;;;;;;;4.09;58.40;98035.72;29373;213;63004;-56
2022/04/17 01:30:52;;;;;;;0.60;0.60;;;;;;;4.08;58.04;98039.44;29373;302;63015;-57
2022/04/17 01:31:28;;;;;;;0.60;0.60;;;;;;;4.09;58.21;98038.41;29373;324;63005;-61
2022/04/17 01:32:00;;;;;;;0.60;0.60;;;;;;;4.10;58.49;98042.75;29373;215;63009;-57
2022/04/17 01:32:31;;;;;;;0.60;0.60;;;;;;;4.11;58.15;98030.94;29373;327;63016;-64
2022/04/17 01:33:02;;;;;;;0.60;0.60;;;;;;;4.11;57.97;98036.31;29373;298;63009;-62
2022/04/17 01:33:33;;;;;;;0.60;0.60;;;;;;;4.11;57.58;98033.63;29373;258;63005;-56
2022/04/17 01:34:04;;;;;;;0.60;0.60;;;;;;;4.11;57.38;98030.94;29373;258;63009;-56
2022/04/17 01:34:37;;;;;;;0.60;0.60;;;;;;;4.11;57.64;98029.09;29371;212;64005;-63
2022/04/17 01:35:08;;;;;;;0.60;0.60;;;;;;;4.12;57.03;98029.91;29373;200;63009;-63
2022/04/17 01:35:42;;;;;;;0.70;0.70;;;;;;;4.07;57.82;98027.06;29373;213;63004;-63
2022/04/17 01:36:13;;;;;;;0.60;0.60;;;;;;;4.01;57.89;98032.28;29373;198;63009;-62
2022/04/17 01:36:46;;;;;;;0.60;0.60;;;;;;;3.98;58.07;98030.03;29373;283;63004;-57
2022/04/17 01:37:18;;;;;;;0.60;0.60;;;;;;;3.97;57.72;98031.09;29373;297;63008;-57
2022/04/17 01:37:50;;;;;;;0.60;0.60;;;;;;;3.99;57.45;98029.00;29373;224;63004;-64
2022/04/17 01:38:24;;;;;;;0.60;0.60;;;;;;;4.02;57.81;98033.09;29373;331;63009;-64
2022/04/17 01:38:55;;;;;;;0.60;0.60;;;;;;;4.04;57.67;98025.66;29373;291;63005;-64
2022/04/17 01:39:28;;;;;;;0.60;0.60;;;;;;;4.03;57.62;98022.13;29373;202;63009;-57
2022/04/17 01:39:59;;;;;;;0.60;0.60;;;;;;;4.03;57.43;98024.81;29371;250;64005;-56
2022/04/17 01:40:30;;;;;;;0.60;0.60;;;;;;;4.03;57.55;98024.81;29373;262;63009;-63
2022/04/17 01:41:01;;;;;;;0.60;0.60;;;;;;;4.00;57.59;98024.44;29373;277;63005;-64
2022/04/17 01:41:32;;;;;;;0.60;0.60;;;;;;;4.00;57.81;98029.81;29373;272;63009;-58
2022/04/17 01:42:04;;;;;;;0.60;0.60;;;;;;;3.97;57.65;98024.88;29373;359;63005;-63
2022/04/17 01:42:35;;;;;;;0.60;0.60;;;;;;;3.96;57.98;98024.06;29373;205;63016;-65
2022/04/17 01:43:12;;;;;;;0.60;0.60;;;;;;;3.97;57.81;98019.53;29373;244;63007;-58
2022/04/17 01:43:44;;;;;;;0.60;0.60;;;;;;;3.96;58.00;98026.75;29373;319;63009;-59
2022/04/17 01:44:16;;;;;;;0.60;0.60;;;;;;;3.97;57.77;98025.72;29373;214;63004;-58
2022/04/17 01:44:49;;;;;;;0.60;0.60;;;;;;;3.97;57.70;98020.34;29374;211;63008;-59
2022/04/17 01:45:20;;;;;;;0.70;0.70;;;;;;;3.95;57.72;98027.78;29372;199;64004;-66
2022/04/17 01:45:51;;;;;;;0.60;0.60;;;;;;;3.92;57.70;98020.19;29374;369;63009;-58
2022/04/17 01:46:22;;;;;;;0.60;0.60;;;;;;;3.88;57.68;98023.53;29374;209;63005;-58
2022/04/17 01:46:53;;;;;;;0.60;0.60;;;;;;;3.86;58.45;98018.38;29374;264;63023;-64
2022/04/17 01:47:24;;;;;;;0.60;0.60;;;;;;;3.86;58.25;98021.06;29374;199;63011;-63
2022/04/17 01:47:56;;;;;;;0.60;0.60;;;;;;;3.87;57.91;98017.34;29374;316;63009;-63
2022/04/17 01:48:27;;;;;;;0.60;0.60;;;;;;;3.88;57.75;98016.31;29374;352;63005;-63
2022/04/17 01:48:59;;;;;;;0.60;0.60;;;;;;;3.89;57.35;98007.19;29374;212;63009;-64
2022/04/17 01:49:31;;;;;;;0.60;0.60;;;;;;;3.88;57.04;98010.09;29374;197;63005;-63
2022/04/17 01:50:03;;;;;;;0.60;0.60;;;;;;;3.88;57.27;98005.56;29374;224;63009;-63
2022/04/17 01:50:34;;;;;;;0.60;0.60;;;;;;;3.88;58.21;98016.31;29372;250;64004;-57
2022/04/17 01:51:05;;;;;;;0.65;0.65;;;;;;;3.88;58.60;98021.66;29374;300;63009;-63
2022/04/17 01:51:38;;;;;;;0.60;0.60;;;;;;;3.87;58.71;98014.66;29372;310;64004;-63
2022/04/17 01:52:10;;;;;;;0.65;0.65;;;;;;;3.87;57.96;98011.97;29374;202;63009;-57
2022/04/17 01:52:41;;;;;;;0.60;0.60;;;;;;;3.88;57.97;98008.25;29373;261;63004;-63
2022/04/17 01:53:12;;;;;;;0.60;0.60;;;;;;;3.89;57.65;98007.19;29374;349;63009;-56
2022/04/17 01:53:43;;;;;;;0.60;0.60;;;;;;;3.90;57.55;98014.22;29374;322;63005;-57
2022/04/17 01:54:16;;;;;;;0.60;0.60;;;;;;;3.91;57.41;98005.13;29374;303;63009;-58
2022/04/17 01:54:47;;;;;;;0.60;0.60;;;;;;;3.92;57.57;98001.38;29374;218;63005;-62
2022/04/17 01:55:18;;;;;;;0.60;0.60;;;;;;;3.94;57.51;98001.16;29374;307;63009;-57
2022/04/17 01:55:49;;;;;;;0.60;0.60;;;;;;;3.95;57.07;98000.94;29374;199;63005;-63
2022/04/17 01:56:20;;;;;;;0.52;0.52;;;;;;;3.95;57.08;97992.88;29374;235;63009;-62
2022/04/17 01:56:53;;;;;;;0.60;0.60;;;;;;;3.97;57.07;97993.50;29372;209;64005;-63
2022/04/17 01:57:24;;;;;;;0.60;0.60;;;;;;;3.97;57.05;97995.34;29374;253;63009;-63
2022/04/17 01:57:56;;;;;;;0.60;0.60;;;;;;;3.96;57.16;97997.22;29374;202;63004;-57
2022/04/17 01:58:27;;;;;;;0.60;0.60;;;;;;;3.96;56.81;97996.41;29374;321;63009;-63
2022/04/17 01:59:01;;;;;;;0.60;0.60;;;;;;;3.96;56.81;97997.22;29372;212;64004;-57
2022/04/17 01:59:32;;;;;;;0.80;0.80;;;;;;;3.95;57.12;97995.56;29374;346;63009;-63
2022/04/17 02:00:05;;;;;;;0.60;0.60;;;;;;;3.94;57.25;97991.25;29374;193;63004;-65
2022/04/17 02:00:36;;;;;;;1.17;1.17;;;;;;;3.96;56.98;97996.41;29374;214;63009;-56
2022/04/17 02:01:07;;;;;;;0.60;0.60;;;;;;;3.94;57.73;97999.31;29374;254;63005;-57
2022/04/17 02:01:40;;;;;;;0.60;0.60;;;;;;;3.92;57.09;97996.03;29374;224;63009;-56
2022/04/17 02:02:11;;;;;;;0.60;0.60;;;;;;;3.91;57.21;97999.75;29374;374;63005;-64
2022/04/17 02:02:42;;;;;;;0.60;0.60;;;;;;;3.89;57.07;97991.09;29374;254;63009;-63
2022/04/17 02:03:15;;;;;;;2.00;1.90;;;;;;;3.91;56.65;97991.69;29374;226;63005;-56
2022/04/17 02:03:46;;;;;;;0.52;0.52;;;;;;;3.93;56.50;97997.66;29374;198;63009;-57
2022/04/17 02:04:18;;;;;;;0.60;0.60;;;;;;;3.95;56.11;97995.56;29372;207;64005;-63
2022/04/17 02:04:49;;;;;;;0.60;0.60;;;;;;;3.97;56.38;97993.50;29374;357;63009;-63
2022/04/17 02:05:20;;;;;;;0.60;0.60;;;;;;;3.97;56.08;97993.50;29374;320;63004;-56
2022/04/17 02:05:51;;;;;;;0.60;0.60;;;;;;;3.96;56.01;97994.53;29374;292;63009;-62
2022/04/17 02:06:22;;;;;;;0.60;0.60;;;;;;;3.95;56.63;98000.12;29374;332;63004;-57
2022/04/17 02:06:54;;;;;;;0.60;0.60;;;;;;;3.94;56.53;98007.34;29374;223;63009;-57
2022/04/17 02:07:25;;;;;;;0.60;0.60;;;;;;;3.94;56.67;97999.31;29374;241;63004;-57
2022/04/17 02:07:56;;;;;;;0.60;0.60;;;;;;;3.93;56.61;97992.28;29374;324;63008;-63
2022/04/17 02:08:28;;;;;;;0.60;0.60;;;;;;;3.93;56.62;97997.66;29374;299;63005;-57
2022/04/17 02:09:00;;;;;;;0.60;0.60;;;;;;;3.95;56.63;97997.44;29374;273;63009;-57
2022/04/17 02:09:33;;;;;;;0.60;0.60;;;;;;;3.93;56.52;97994.16;29372;226;64005;-58
2022/04/17 02:10:06;;;;;;;0.60;0.60;;;;;;;3.94;56.55;98002.00;29374;326;63009;-64
2022/04/17 02:10:42;;;;;;;0.60;0.60;;;;;;;3.94;56.66;97999.31;29374;321;63005;-57
2022/04/17 02:11:13;;;;;;;0.60;0.60;;;;;;;3.94;56.54;97999.31;29374;256;63009;-57
2022/04/17 02:11:45;;;;;;;0.60;0.60;;;;;;;3.94;56.48;97999.31;29372;196;64004;-57
2022/04/17 02:12:18;;;;;;;0.68;0.68;;;;;;;3.95;56.12;98000.94;29374;226;63009;-57
2022/04/17 02:12:52;;;;;;;0.60;0.60;;;;;;;3.93;56.48;97994.97;29374;318;63000;-63
2022/04/17 02:13:24;;;;;;;0.60;0.60;;;;;;;3.94;56.38;97996.63;29374;224;63009;-58
2022/04/17 02:13:57;;;;;;;1.00;1.00;;;;;;;3.95;57.02;97994.75;29374;286;63004;-64
2022/04/17 02:14:28;;;;;;;0.60;0.60;;;;;;;3.95;57.12;97995.56;29374;204;63008;-57
2022/04/17 02:15:00;;;;;;;0.60;0.60;;;;;;;3.97;57.15;97998.84;29374;201;63004;-57
2022/04/17 02:15:33;;;;;;;0.60;0.60;;;;;;;3.99;56.80;98001.31;29374;266;63008;-56
2022/04/17 02:16:06;;;;;;;0.60;0.60;;;;;;;3.97;57.47;98004.22;29374;197;63005;-63
2022/04/17 02:16:38;;;;;;;0.60;0.60;;;;;;;3.93;57.44;97994.97;29374;233;63009;-57
2022/04/17 02:17:10;;;;;;;0.60;0.60;;;;;;;3.93;57.05;98003.03;29372;320;64005;-57
2022/04/17 02:17:42;;;;;;;0.60;0.60;;;;;;;3.94;56.91;97993.94;29374;202;63009;-60
2022/04/17 02:18:16;;;;;;;0.65;0.65;;;;;;;3.95;57.35;97997.44;29374;250;63005;-58
2022/04/17 02:18:49;;;;;;;0.60;0.60;;;;;;;3.94;57.12;97996.63;29374;260;63009;-64
2022/04/17 02:19:20;;;;;;;0.60;0.60;;;;;;;3.95;57.45;97992.88;29374;260;63004;-65
2022/04/17 02:19:52;;;;;;;0.60;0.60;;;;;;;3.93;57.57;97992.28;29372;220;64009;-65
2022/04/17 02:20:24;;;;;;;0.60;0.60;;;;;;;3.90;57.54;97992.72;29375;295;63004;-59
2022/04/17 02:20:59;;;;;;;0.60;0.60;;;;;;;3.90;57.60;97998.09;29375;250;63009;-57
2022/04/17 02:21:31;;;;;;;0.60;0.60;;;;;;;3.91;57.84;97993.56;29375;240;63004;-57
2022/04/17 02:22:03;;;;;;;0.60;0.60;;;;;;;3.91;57.81;97994.38;29375;226;63008;-62
2022/04/17 02:22:34;;;;;;;0.60;0.60;;;;;;;3.90;57.90;97991.91;29375;296;63005;-63
2022/04/17 02:23:06;;;;;;;0.60;0.60;;;;;;;3.88;57.87;97992.12;29375;299;63009;-62
2022/04/17 02:23:37;;;;;;;0.60;0.60;;;;;;;3.87;57.80;97993.19;29375;214;63005;-63
2022/04/17 02:24:09;;;;;;;0.60;0.60;;;;;;;3.86;59.32;97990.72;29373;256;64009;-57
2022/04/17 02:24:40;;;;;;;0.60;0.60;;;;;;;3.82;58.48;97993.03;29375;327;63005;-58
2022/04/17 02:25:13;;;;;;;0.60;0.60;;;;;;;3.82;58.32;97986.84;29375;329;63009;-56
2022/04/17 02:25:46;;;;;;;1.02;1.02;;;;;;;3.81;58.48;97987.91;29375;219;63005;-63
2022/04/17 02:26:17;;;;;;;0.60;0.60;;;;;;;3.79;58.16;97996.19;29375;227;63009;-62
2022/04/17 02:26:48;;;;;;;1.55;1.55;;;;;;;3.81;58.27;97988.69;29375;303;63004;-56
2022/04/17 02:27:19;;;;;;;0.60;0.60;;;;;;;3.80;59.17;97992.44;29375;337;63009;-57
2022/04/17 02:27:51;;;;;;;0.60;0.60;;;;;;;3.78;58.60;97989.16;29375;234;63004;-57
2022/04/17 02:28:22;;;;;;;0.60;0.60;;;;;;;3.78;58.15;97991.03;29375;290;63009;-62
2022/04/17 02:28:56;;;;;;;0.60;0.60;;;;;;;3.79;58.14;97990.81;29376;340;63004;-56
2022/04/17 02:29:29;;;;;;;0.60;0.60;;;;;;;3.78;57.97;97981.13;29374;267;64008;-56
2022/04/17 02:30:00;;;;;;;0.60;0.60;;;;;;;3.77;59.43;97998.25;29376;340;63005;-57
2022/04/17 02:30:31;;;;;;;0.60;0.60;;;;;;;3.76;58.52;97991.25;29376;203;63009;-57
2022/04/17 02:31:07;;;;;;;0.60;0.60;;;;;;;3.75;58.87;97994.97;29374;256;64005;-64
2022/04/17 02:31:38;;;;;;;0.60;0.60;;;;;;;3.74;58.67;97989.84;29376;222;63009;-57
2022/04/17 02:32:11;;;;;;;0.60;0.60;;;;;;;3.74;58.23;97987.97;29376;264;63011;-62
2022/04/17 02:32:42;;;;;;;0.60;0.60;;;;;;;3.75;57.98;97986.94;29376;321;63009;-63
2022/04/17 02:33:17;;;;;;;0.60;0.60;;;;;;;3.75;58.26;97989.63;29376;233;63008;-57
2022/04/17 02:33:50;;;;;;;0.60;0.60;;;;;;;3.75;59.62;97994.16;29376;199;63009;-57
2022/04/17 02:34:21;;;;;;;0.60;0.60;;;;;;;3.72;58.69;97987.38;29374;233;64004;-56
2022/04/17 02:34:54;;;;;;;0.60;0.60;;;;;;;3.71;58.56;97988.41;29376;223;63009;-63
2022/04/17 02:35:25;;;;;;;0.50;0.50;;;;;;;3.72;58.58;97983.88;29376;202;63004;-57
2022/04/17 02:35:57;;;;;;;0.60;0.60;;;;;;;3.73;58.05;97980.97;29376;338;63009;-63
2022/04/17 02:36:28;;;;;;;0.60;0.60;;;;;;;3.75;57.63;97976.19;29376;363;63004;-63
2022/04/17 02:36:59;;;;;;;0.60;0.60;;;;;;;3.76;57.60;97972.47;29376;373;63013;-62
2022/04/17 02:37:30;;;;;;;0.60;0.60;;;;;;;3.77;57.20;97966.06;29375;285;64004;-58
2022/04/17 02:38:04;;;;;;;0.60;0.60;;;;;;;3.80;57.06;97973.66;29376;308;63009;-57
2022/04/17 02:38:35;;;;;;;0.50;0.50;;;;;;;3.80;57.28;97964.78;29376;238;63005;-63